createdAt,value
2018-10-15T00:00:30.991Z,12.90
2018-10-15T00:01:03.651Z,12.80
2018-10-15T00:01:36.230Z,12.80
2018-10-15T00:02:08.843Z,12.80
2018-10-15T00:02:41.461Z,12.80
2018-10-15T00:03:14.006Z,12.80
2018-10-15T00:03:46.591Z,12.80
2018-10-15T00:04:19.168Z,12.70
2018-10-15T00:04:51.718Z,12.70
2018-10-15T00:05:24.307Z,12.70
2018-10-15T00:05:56.875Z,12.70
2018-10-15T00:06:29.470Z,12.70
2018-10-15T00:07:02.089Z,12.70
2018-10-15T00:07:34.701Z,12.60
2018-10-15T00:08:07.301Z,12.60
2018-10-15T00:08:39.855Z,12.60
2018-10-15T00:09:12.446Z,12.60
2018-10-15T00:09:45.024Z,12.60
2018-10-15T00:10:17.606Z,12.50
2018-10-15T00:10:50.176Z,12.50
2018-10-15T00:11:22.760Z,12.50
2018-10-15T00:11:55.360Z,12.50
2018-10-15T00:12:28.027Z,12.50
2018-10-15T00:13:00.654Z,12.50
2018-10-15T00:13:33.186Z,12.40
2018-10-15T00:14:06.070Z,12.40
2018-10-15T00:14:39.069Z,12.40
2018-10-15T00:15:19.198Z,12.40
2018-10-15T00:15:51.747Z,12.40
2018-10-15T00:16:24.330Z,12.40
2018-10-15T00:16:56.908Z,12.40
2018-10-15T00:17:29.514Z,12.40
2018-10-15T00:18:02.059Z,12.40
2018-10-15T00:18:34.672Z,12.40
2018-10-15T00:19:07.215Z,12.40
2018-10-15T00:19:40.318Z,12.40
2018-10-15T00:20:12.875Z,12.30
2018-10-15T00:20:45.426Z,12.30
2018-10-15T00:21:17.962Z,12.30
2018-10-15T00:21:50.515Z,12.30
2018-10-15T00:22:23.071Z,12.30
2018-10-15T00:22:55.949Z,12.30
2018-10-15T00:23:28.487Z,12.30
2018-10-15T00:24:01.038Z,12.20
2018-10-15T00:24:33.588Z,12.20
2018-10-15T00:25:06.214Z,12.20
2018-10-15T00:25:38.762Z,12.20
2018-10-15T00:26:11.318Z,12.20
2018-10-15T00:26:43.920Z,12.20
2018-10-15T00:27:16.505Z,12.10
2018-10-15T00:27:49.091Z,12.20
2018-10-15T00:28:21.679Z,12.10
2018-10-15T00:28:54.267Z,12.10
2018-10-15T00:29:26.806Z,12.10
2018-10-15T00:29:59.359Z,12.00
2018-10-15T00:30:31.906Z,12.00
2018-10-15T00:31:05.002Z,12.00
2018-10-15T00:31:37.581Z,12.00
2018-10-15T00:32:10.139Z,11.90
2018-10-15T00:32:43.583Z,11.90
2018-10-15T00:33:16.143Z,11.90
2018-10-15T00:33:48.709Z,12.00
2018-10-15T00:34:21.262Z,11.90
2018-10-15T00:34:53.811Z,11.90
2018-10-15T00:35:26.363Z,11.90
2018-10-15T00:35:58.903Z,11.90
2018-10-15T00:36:31.466Z,11.90
2018-10-15T00:37:04.202Z,11.90
2018-10-15T00:37:37.646Z,11.90
2018-10-15T00:38:10.186Z,11.90
2018-10-15T00:38:42.735Z,11.90
2018-10-15T00:39:15.352Z,11.90
2018-10-15T00:39:47.907Z,12.00
2018-10-15T00:40:20.456Z,12.00
2018-10-15T00:40:53.039Z,12.10
2018-10-15T00:41:25.602Z,12.00
2018-10-15T00:41:58.156Z,12.10
2018-10-15T00:42:30.756Z,12.10
2018-10-15T00:43:03.346Z,12.20
2018-10-15T00:43:36.011Z,12.20
2018-10-15T00:44:08.711Z,12.20
2018-10-15T00:44:41.283Z,12.20
2018-10-15T00:45:14.348Z,12.20
2018-10-15T00:45:46.936Z,12.20
2018-10-15T00:46:19.486Z,12.20
2018-10-15T00:46:52.039Z,12.20
2018-10-15T00:47:24.627Z,12.20
2018-10-15T00:47:57.179Z,12.20
2018-10-15T00:48:29.743Z,12.20
2018-10-15T00:49:02.298Z,12.20
2018-10-15T00:49:34.880Z,12.30
2018-10-15T00:50:09.391Z,12.30
2018-10-15T00:50:41.984Z,12.30
2018-10-15T00:51:14.528Z,12.30
2018-10-15T00:51:47.099Z,12.30
2018-10-15T00:52:19.774Z,12.30
2018-10-15T00:52:52.327Z,12.30
2018-10-15T00:53:24.927Z,12.30
2018-10-15T00:53:57.470Z,12.30
2018-10-15T00:54:30.056Z,12.30
2018-10-15T00:55:02.635Z,12.30
2018-10-15T00:55:35.211Z,12.30
2018-10-15T00:56:07.771Z,12.30
2018-10-15T00:56:40.331Z,12.30
2018-10-15T00:57:12.912Z,12.30
2018-10-15T00:57:45.454Z,12.30
2018-10-15T00:58:17.998Z,12.30
2018-10-15T00:58:50.543Z,12.30
2018-10-15T00:59:23.127Z,12.30
2018-10-15T00:59:55.682Z,12.40
2018-10-15T01:00:28.259Z,12.40
2018-10-15T01:01:00.882Z,12.40
2018-10-15T01:01:33.459Z,12.40
2018-10-15T01:02:06.010Z,12.40
2018-10-15T01:02:38.756Z,12.40
2018-10-15T01:03:11.299Z,12.40
2018-10-15T01:03:43.876Z,12.50
2018-10-15T01:04:16.422Z,12.50
2018-10-15T01:04:48.982Z,12.50
2018-10-15T01:05:21.597Z,12.50
2018-10-15T01:05:54.151Z,12.40
2018-10-15T01:06:26.784Z,12.50
2018-10-15T01:06:59.366Z,12.50
2018-10-15T01:07:31.902Z,12.50
2018-10-15T01:08:04.547Z,12.50
2018-10-15T01:08:37.127Z,12.50
2018-10-15T01:09:09.675Z,12.50
2018-10-15T01:09:42.238Z,12.50
2018-10-15T01:10:14.828Z,12.50
2018-10-15T01:10:47.411Z,12.50
2018-10-15T01:11:19.982Z,12.50
2018-10-15T01:11:52.568Z,12.50
2018-10-15T01:12:25.170Z,12.50
2018-10-15T01:12:57.712Z,12.40
2018-10-15T01:13:30.255Z,12.50
2018-10-15T01:14:02.856Z,12.50
2018-10-15T01:14:35.423Z,12.50
2018-10-15T01:15:09.682Z,12.50
2018-10-15T01:15:42.224Z,12.50
2018-10-15T01:16:14.778Z,12.50
2018-10-15T01:16:47.334Z,12.50
2018-10-15T01:17:19.922Z,12.50
2018-10-15T01:17:52.516Z,12.50
2018-10-15T01:18:25.071Z,12.50
2018-10-15T01:18:57.638Z,12.50
2018-10-15T01:19:30.235Z,12.50
2018-10-15T01:20:02.879Z,12.50
2018-10-15T01:20:35.458Z,12.50
2018-10-15T01:21:08.030Z,12.50
2018-10-15T01:21:40.575Z,12.50
2018-10-15T01:22:13.111Z,12.40
2018-10-15T01:22:45.715Z,12.40
2018-10-15T01:23:18.259Z,12.40
2018-10-15T01:23:50.822Z,12.40
2018-10-15T01:24:23.788Z,12.30
2018-10-15T01:24:56.358Z,12.40
2018-10-15T01:25:28.883Z,12.30
2018-10-15T01:26:01.476Z,12.30
2018-10-15T01:26:39.684Z,12.30
2018-10-15T01:27:12.258Z,12.20
2018-10-15T01:27:44.821Z,12.20
2018-10-15T01:28:17.434Z,12.20
2018-10-15T01:28:49.989Z,12.20
2018-10-15T01:29:22.546Z,12.20
2018-10-15T01:29:55.123Z,12.20
2018-10-15T01:30:27.712Z,12.20
2018-10-15T01:31:00.270Z,12.10
2018-10-15T01:31:32.867Z,12.20
2018-10-15T01:32:05.427Z,12.20
2018-10-15T01:32:38.043Z,12.10
2018-10-15T01:33:10.590Z,12.10
2018-10-15T01:33:43.146Z,12.10
2018-10-15T01:34:15.683Z,12.10
2018-10-15T01:34:48.275Z,12.10
2018-10-15T01:35:20.850Z,12.10
2018-10-15T01:35:53.399Z,12.00
2018-10-15T01:36:25.958Z,12.10
2018-10-15T01:36:58.510Z,12.10
2018-10-15T01:37:31.108Z,12.00
2018-10-15T01:38:04.319Z,12.00
2018-10-15T01:39:40.082Z,12.00
2018-10-15T01:40:12.672Z,12.00
2018-10-15T01:40:45.207Z,11.90
2018-10-15T01:41:17.767Z,11.90
2018-10-15T01:41:50.319Z,11.90
2018-10-15T01:42:22.899Z,11.90
2018-10-15T01:42:55.476Z,11.90
2018-10-15T01:43:28.014Z,11.80
2018-10-15T01:44:00.599Z,11.80
2018-10-15T01:44:33.161Z,11.70
2018-10-15T01:45:06.239Z,11.70
2018-10-15T01:45:38.824Z,11.70
2018-10-15T01:46:11.367Z,11.70
2018-10-15T01:46:43.924Z,11.70
2018-10-15T01:47:16.502Z,11.70
2018-10-15T01:47:49.084Z,11.70
2018-10-15T01:48:21.622Z,11.60
2018-10-15T01:48:54.208Z,11.60
2018-10-15T01:49:26.789Z,11.60
2018-10-15T01:49:59.342Z,11.60
2018-10-15T01:50:31.949Z,11.60
2018-10-15T01:51:04.572Z,11.60
2018-10-15T01:51:37.122Z,11.60
2018-10-15T01:52:09.676Z,11.60
2018-10-15T01:52:42.270Z,11.60
2018-10-15T01:53:14.846Z,11.60
2018-10-15T01:53:47.468Z,11.60
2018-10-15T01:54:20.046Z,11.60
2018-10-15T01:54:52.634Z,11.60
2018-10-15T01:55:25.230Z,11.60
2018-10-15T01:55:57.803Z,11.60
2018-10-15T01:56:30.375Z,11.60
2018-10-15T01:57:02.962Z,11.60
2018-10-15T01:57:35.522Z,11.70
2018-10-15T01:58:08.103Z,11.60
2018-10-15T01:58:40.727Z,11.60
2018-10-15T01:59:13.276Z,11.70
2018-10-15T01:59:45.831Z,11.60
2018-10-15T02:00:18.388Z,11.60
2018-10-15T02:00:50.971Z,11.60
2018-10-15T02:01:23.863Z,11.60
2018-10-15T02:01:56.448Z,11.60
2018-10-15T02:02:28.995Z,11.60
2018-10-15T02:03:01.551Z,11.60
2018-10-15T02:03:34.177Z,11.60
2018-10-15T02:04:06.743Z,11.60
2018-10-15T02:04:39.340Z,11.60
2018-10-15T02:05:11.937Z,11.60
2018-10-15T02:05:44.487Z,11.60
2018-10-15T02:06:17.112Z,11.60
2018-10-15T02:06:54.316Z,11.60
2018-10-15T02:07:26.870Z,11.60
2018-10-15T02:07:59.446Z,11.60
2018-10-15T02:08:32.025Z,11.60
2018-10-15T02:09:07.107Z,11.60
2018-10-15T02:09:39.699Z,11.60
2018-10-15T02:10:12.282Z,11.60
2018-10-15T02:10:44.823Z,11.60
2018-10-15T02:11:17.367Z,11.60
2018-10-15T02:11:50.032Z,11.50
2018-10-15T02:12:22.654Z,11.50
2018-10-15T02:12:55.210Z,11.50
2018-10-15T02:13:27.807Z,11.50
2018-10-15T02:15:03.708Z,11.50
2018-10-15T02:15:36.274Z,11.50
2018-10-15T02:16:08.855Z,11.50
2018-10-15T02:16:41.411Z,11.50
2018-10-15T02:17:13.959Z,11.50
2018-10-15T02:17:46.535Z,11.50
2018-10-15T02:18:19.121Z,11.50
2018-10-15T02:18:51.678Z,11.50
2018-10-15T02:19:24.271Z,11.50
2018-10-15T02:19:56.853Z,11.50
2018-10-15T02:20:29.452Z,11.50
2018-10-15T02:21:02.006Z,11.50
2018-10-15T02:21:34.588Z,11.50
2018-10-15T02:22:07.143Z,11.60
2018-10-15T02:22:39.722Z,11.60
2018-10-15T02:23:12.305Z,11.50
2018-10-15T02:23:44.867Z,11.60
2018-10-15T02:24:17.474Z,11.50
2018-10-15T02:24:50.058Z,11.60
2018-10-15T02:25:22.615Z,11.60
2018-10-15T02:25:55.178Z,11.60
2018-10-15T02:26:27.723Z,11.60
2018-10-15T02:27:00.280Z,11.60
2018-10-15T02:27:32.853Z,11.60
2018-10-15T02:28:05.786Z,11.60
2018-10-15T02:28:38.382Z,11.60
2018-10-15T02:29:11.326Z,11.60
2018-10-15T02:29:43.883Z,11.60
2018-10-15T02:30:16.473Z,11.70
2018-10-15T02:30:49.031Z,11.60
2018-10-15T02:31:21.594Z,11.60
2018-10-15T02:31:54.149Z,11.60
2018-10-15T02:32:26.782Z,11.60
2018-10-15T02:32:59.323Z,11.60
2018-10-15T02:33:31.911Z,11.60
2018-10-15T02:34:05.076Z,11.60
2018-10-15T02:34:37.651Z,11.60
2018-10-15T02:35:10.239Z,11.60
2018-10-15T02:35:42.814Z,11.60
2018-10-15T02:36:15.386Z,11.50
2018-10-15T02:36:47.966Z,11.50
2018-10-15T02:37:20.567Z,11.50
2018-10-15T02:37:53.151Z,11.50
2018-10-15T02:38:25.709Z,11.50
2018-10-15T02:38:58.274Z,11.50
2018-10-15T02:39:30.852Z,11.50
2018-10-15T02:40:03.494Z,11.50
2018-10-15T02:40:36.099Z,11.50
2018-10-15T02:41:08.731Z,11.40
2018-10-15T02:41:41.630Z,11.50
2018-10-15T02:42:14.218Z,11.50
2018-10-15T02:42:46.790Z,11.40
2018-10-15T02:43:19.342Z,11.40
2018-10-15T02:43:51.886Z,11.40
2018-10-15T02:44:24.430Z,11.40
2018-10-15T02:44:57.035Z,11.30
2018-10-15T02:45:29.598Z,11.30
2018-10-15T02:46:02.242Z,11.30
2018-10-15T02:46:34.786Z,11.30
2018-10-15T02:47:07.370Z,11.20
2018-10-15T02:47:39.952Z,11.20
2018-10-15T02:48:12.544Z,11.20
2018-10-15T02:48:45.136Z,11.20
2018-10-15T02:49:17.734Z,11.20
2018-10-15T02:49:50.285Z,11.10
2018-10-15T02:50:22.900Z,11.10
2018-10-15T02:50:55.463Z,11.10
2018-10-15T02:51:28.030Z,11.10
2018-10-15T02:52:00.628Z,11.10
2018-10-15T02:52:33.182Z,11.10
2018-10-15T02:53:05.792Z,11.10
2018-10-15T02:53:38.342Z,11.00
2018-10-15T02:54:10.894Z,11.10
2018-10-15T02:54:43.436Z,11.00
2018-10-15T02:55:16.020Z,11.00
2018-10-15T02:55:48.619Z,11.00
2018-10-15T02:56:21.197Z,11.00
2018-10-15T02:56:53.755Z,11.00
2018-10-15T02:57:26.313Z,11.00
2018-10-15T02:57:58.877Z,11.00
2018-10-15T02:58:31.478Z,11.00
2018-10-15T02:59:04.560Z,10.90
2018-10-15T02:59:37.116Z,11.00
2018-10-15T03:00:11.755Z,10.90
2018-10-15T03:00:44.352Z,10.90
2018-10-15T03:01:16.982Z,10.90
2018-10-15T03:01:49.524Z,10.90
2018-10-15T03:02:22.094Z,10.90
2018-10-15T03:02:54.680Z,10.90
2018-10-15T03:03:27.222Z,11.00
2018-10-15T03:03:59.811Z,10.90
2018-10-15T03:04:32.391Z,10.90
2018-10-15T03:05:06.372Z,10.90
2018-10-15T03:05:38.919Z,10.90
2018-10-15T03:06:11.503Z,10.90
2018-10-15T03:06:44.141Z,10.90
2018-10-15T03:07:16.701Z,10.80
2018-10-15T03:07:49.274Z,10.90
2018-10-15T03:08:21.867Z,10.80
2018-10-15T03:08:54.430Z,10.80
2018-10-15T03:09:26.978Z,10.80
2018-10-15T03:09:59.565Z,10.80
2018-10-15T03:10:32.114Z,10.80
2018-10-15T03:11:04.720Z,10.80
2018-10-15T03:11:37.304Z,10.70
2018-10-15T03:12:09.924Z,10.80
2018-10-15T03:12:42.474Z,10.80
2018-10-15T03:13:15.054Z,10.80
2018-10-15T03:13:47.627Z,10.80
2018-10-15T03:14:20.220Z,10.80
2018-10-15T03:14:52.864Z,10.80
2018-10-15T03:15:25.451Z,10.80
2018-10-15T03:15:58.088Z,10.80
2018-10-15T03:16:30.632Z,10.80
2018-10-15T03:17:03.203Z,10.80
2018-10-15T03:17:35.936Z,10.80
2018-10-15T03:18:08.492Z,10.90
2018-10-15T03:18:41.087Z,10.90
2018-10-15T03:19:13.667Z,10.90
2018-10-15T03:19:46.249Z,10.90
2018-10-15T03:20:18.941Z,11.00
2018-10-15T03:20:51.382Z,11.00
2018-10-15T03:21:23.963Z,11.00
2018-10-15T03:21:56.503Z,11.10
2018-10-15T03:22:29.131Z,11.10
2018-10-15T03:23:01.756Z,11.10
2018-10-15T03:23:34.348Z,11.10
2018-10-15T03:24:06.934Z,11.10
2018-10-15T03:24:39.478Z,11.10
2018-10-15T03:25:12.078Z,11.20
2018-10-15T03:25:44.697Z,11.20
2018-10-15T03:26:17.274Z,11.20
2018-10-15T03:26:49.875Z,11.20
2018-10-15T03:27:22.413Z,11.20
2018-10-15T03:27:54.992Z,11.30
2018-10-15T03:28:27.580Z,11.30
2018-10-15T03:29:00.180Z,11.30
2018-10-15T03:29:32.727Z,11.30
2018-10-15T03:30:06.606Z,11.30
2018-10-15T03:30:39.198Z,11.30
2018-10-15T03:31:11.745Z,11.30
2018-10-15T03:31:44.303Z,11.30
2018-10-15T03:32:16.872Z,11.30
2018-10-15T03:32:49.446Z,11.30
2018-10-15T03:33:22.041Z,11.30
2018-10-15T03:33:54.646Z,11.40
2018-10-15T03:34:27.219Z,11.40
2018-10-15T03:34:59.778Z,11.40
2018-10-15T03:35:32.376Z,11.40
2018-10-15T03:36:05.380Z,11.40
2018-10-15T03:36:37.995Z,11.40
2018-10-15T03:37:10.862Z,11.50
2018-10-15T03:37:43.449Z,11.40
2018-10-15T03:38:16.050Z,11.40
2018-10-15T03:38:48.703Z,11.40
2018-10-15T03:39:21.337Z,11.40
2018-10-15T03:39:53.918Z,11.40
2018-10-15T03:40:26.521Z,11.40
2018-10-15T03:40:59.891Z,11.50
2018-10-15T03:41:32.501Z,11.50
2018-10-15T03:42:05.688Z,11.40
2018-10-15T03:42:38.263Z,11.40
2018-10-15T03:43:10.845Z,11.50
2018-10-15T03:43:43.446Z,11.40
2018-10-15T03:44:16.045Z,11.40
2018-10-15T03:44:48.650Z,11.40
2018-10-15T03:45:21.210Z,11.40
2018-10-15T03:45:53.774Z,11.40
2018-10-15T03:46:26.378Z,11.40
2018-10-15T03:46:58.954Z,11.40
2018-10-15T03:47:31.532Z,11.40
2018-10-15T03:48:04.200Z,11.40
2018-10-15T03:48:36.769Z,11.40
2018-10-15T03:49:09.339Z,11.40
2018-10-15T03:49:41.909Z,11.40
2018-10-15T03:50:14.551Z,11.40
2018-10-15T03:50:47.165Z,11.40
2018-10-15T03:51:20.112Z,11.40
2018-10-15T03:51:52.696Z,11.40
2018-10-15T03:52:25.350Z,11.40
2018-10-15T03:52:57.944Z,11.40
2018-10-15T03:53:30.540Z,11.40
2018-10-15T03:54:03.124Z,11.40
2018-10-15T03:54:35.703Z,11.40
2018-10-15T03:55:08.302Z,11.40
2018-10-15T03:55:40.915Z,11.50
2018-10-15T03:56:13.491Z,11.40
2018-10-15T03:56:46.087Z,11.40
2018-10-15T03:57:19.050Z,11.40
2018-10-15T03:57:51.635Z,11.50
2018-10-15T03:58:24.211Z,11.50
2018-10-15T03:58:56.837Z,11.50
2018-10-15T03:59:29.410Z,11.50
2018-10-15T04:00:02.035Z,11.50
2018-10-15T04:00:34.656Z,11.50
2018-10-15T04:01:07.280Z,11.50
2018-10-15T04:01:39.860Z,11.50
2018-10-15T04:02:12.489Z,11.50
2018-10-15T04:02:45.091Z,11.50
2018-10-15T04:03:17.713Z,11.50
2018-10-15T04:03:50.314Z,11.60
2018-10-15T04:04:23.046Z,11.60
2018-10-15T04:04:55.626Z,11.60
2018-10-15T04:05:28.271Z,11.60
2018-10-15T04:06:00.873Z,11.60
2018-10-15T04:06:33.478Z,11.60
2018-10-15T04:07:06.079Z,11.60
2018-10-15T04:07:38.663Z,11.60
2018-10-15T04:08:11.270Z,11.70
2018-10-15T04:08:43.853Z,11.60
2018-10-15T04:09:16.460Z,11.70
2018-10-15T04:09:49.067Z,11.60
2018-10-15T04:10:21.646Z,11.70
2018-10-15T04:10:54.230Z,11.60
2018-10-15T04:11:26.827Z,11.70
2018-10-15T04:11:59.427Z,11.70
2018-10-15T04:12:32.026Z,11.60
2018-10-15T04:13:04.663Z,11.60
2018-10-15T04:13:37.357Z,11.60
2018-10-15T04:14:10.506Z,11.70
2018-10-15T04:14:43.114Z,11.70
2018-10-15T04:15:15.774Z,11.60
2018-10-15T04:15:48.375Z,11.70
2018-10-15T04:16:20.949Z,11.60
2018-10-15T04:16:53.546Z,11.60
2018-10-15T04:17:26.147Z,11.60
2018-10-15T04:17:58.735Z,11.60
2018-10-15T04:18:31.315Z,11.60
2018-10-15T04:19:04.126Z,11.60
2018-10-15T04:19:36.685Z,11.60
2018-10-15T04:20:09.322Z,11.60
2018-10-15T04:20:41.955Z,11.60
2018-10-15T04:21:14.523Z,11.60
2018-10-15T04:21:47.155Z,11.60
2018-10-15T04:22:19.776Z,11.60
2018-10-15T04:22:52.387Z,11.60
2018-10-15T04:23:25.008Z,11.60
2018-10-15T04:23:57.624Z,11.60
2018-10-15T04:24:30.203Z,11.60
2018-10-15T04:25:02.812Z,11.60
2018-10-15T04:25:35.378Z,11.50
2018-10-15T04:26:08.011Z,11.50
2018-10-15T04:26:40.649Z,11.50
2018-10-15T04:27:13.237Z,11.50
2018-10-15T04:27:45.895Z,11.50
2018-10-15T04:28:18.538Z,11.50
2018-10-15T04:28:51.131Z,11.50
2018-10-15T04:29:23.694Z,11.60
2018-10-15T04:29:56.304Z,11.60
2018-10-15T04:30:28.879Z,11.60
2018-10-15T04:31:01.466Z,11.50
2018-10-15T04:31:34.047Z,11.50
2018-10-15T04:32:06.671Z,11.50
2018-10-15T04:32:39.295Z,11.50
2018-10-15T04:33:11.911Z,11.50
2018-10-15T04:33:44.511Z,11.50
2018-10-15T04:34:17.083Z,11.50
2018-10-15T04:34:49.670Z,11.50
2018-10-15T04:35:22.288Z,11.50
2018-10-15T04:35:54.904Z,11.50
2018-10-15T04:36:27.515Z,11.50
2018-10-15T04:37:00.129Z,11.50
2018-10-15T04:37:32.738Z,11.50
2018-10-15T04:38:05.394Z,11.50
2018-10-15T04:38:38.017Z,11.60
2018-10-15T04:39:10.676Z,11.60
2018-10-15T04:39:43.296Z,11.50
2018-10-15T04:40:15.871Z,11.60
2018-10-15T04:40:48.479Z,11.50
2018-10-15T04:41:21.063Z,11.60
2018-10-15T04:41:53.647Z,11.50
2018-10-15T04:42:26.235Z,11.50
2018-10-15T04:42:58.818Z,11.50
2018-10-15T04:43:31.384Z,11.50
2018-10-15T04:44:04.207Z,11.50
2018-10-15T04:44:36.814Z,11.50
2018-10-15T04:45:10.547Z,11.50
2018-10-15T04:45:43.121Z,11.50
2018-10-15T04:46:15.739Z,11.50
2018-10-15T04:46:48.324Z,11.40
2018-10-15T04:47:20.920Z,11.40
2018-10-15T04:47:53.529Z,11.40
2018-10-15T04:48:26.123Z,11.30
2018-10-15T04:48:58.765Z,11.40
2018-10-15T04:49:31.543Z,11.30
2018-10-15T04:50:04.607Z,11.30
2018-10-15T04:50:37.114Z,11.30
2018-10-15T04:51:09.679Z,11.30
2018-10-15T04:51:42.267Z,11.30
2018-10-15T04:52:14.854Z,11.30
2018-10-15T04:52:47.663Z,11.30
2018-10-15T04:53:20.243Z,11.20
2018-10-15T04:53:52.856Z,11.30
2018-10-15T04:54:25.477Z,11.20
2018-10-15T04:54:58.096Z,11.20
2018-10-15T04:55:30.737Z,11.20
2018-10-15T04:56:03.398Z,11.20
2018-10-15T04:56:36.001Z,11.20
2018-10-15T04:57:08.644Z,11.20
2018-10-15T04:57:41.211Z,11.20
2018-10-15T04:58:13.782Z,11.20
2018-10-15T04:58:46.412Z,11.20
2018-10-15T04:59:18.967Z,11.20
2018-10-15T04:59:51.547Z,11.20
2018-10-15T05:00:24.229Z,11.10
2018-10-15T05:00:56.846Z,11.20
2018-10-15T05:01:29.443Z,11.10
2018-10-15T05:02:02.055Z,11.10
2018-10-15T05:02:34.668Z,11.10
2018-10-15T05:03:07.255Z,11.10
2018-10-15T05:03:39.896Z,11.10
2018-10-15T05:04:12.472Z,11.10
2018-10-15T05:04:45.097Z,11.10
2018-10-15T05:05:17.686Z,11.10
2018-10-15T05:05:50.278Z,11.10
2018-10-15T05:06:23.058Z,11.10
2018-10-15T05:06:55.554Z,11.10
2018-10-15T05:07:28.131Z,11.10
2018-10-15T05:08:00.719Z,11.10
2018-10-15T05:08:33.325Z,11.10
2018-10-15T05:09:07.684Z,11.10
2018-10-15T05:09:40.303Z,11.10
2018-10-15T05:10:12.868Z,11.10
2018-10-15T05:10:45.447Z,11.10
2018-10-15T05:11:18.138Z,11.10
2018-10-15T05:11:50.743Z,11.20
2018-10-15T05:12:23.409Z,11.10
2018-10-15T05:12:55.979Z,11.20
2018-10-15T05:13:28.712Z,11.10
2018-10-15T05:14:01.343Z,11.10
2018-10-15T05:14:33.951Z,11.20
2018-10-15T05:15:07.987Z,11.20
2018-10-15T05:15:40.580Z,11.20
2018-10-15T05:16:13.178Z,11.20
2018-10-15T05:16:45.779Z,11.20
2018-10-15T05:17:18.396Z,11.20
2018-10-15T05:17:51.011Z,11.20
2018-10-15T05:18:23.685Z,11.20
2018-10-15T05:18:56.203Z,11.20
2018-10-15T05:19:28.775Z,11.20
2018-10-15T05:20:01.400Z,11.20
2018-10-15T05:20:34.035Z,11.20
2018-10-15T05:21:06.802Z,11.20
2018-10-15T05:21:39.263Z,11.20
2018-10-15T05:22:11.896Z,11.30
2018-10-15T05:22:44.507Z,11.20
2018-10-15T05:23:17.299Z,11.20
2018-10-15T05:23:49.901Z,11.20
2018-10-15T05:24:22.857Z,11.30
2018-10-15T05:24:55.290Z,11.20
2018-10-15T05:25:27.901Z,11.30
2018-10-15T05:26:00.510Z,11.30
2018-10-15T05:26:33.099Z,11.30
2018-10-15T05:27:05.863Z,11.20
2018-10-15T05:27:38.465Z,11.30
2018-10-15T05:28:11.080Z,11.20
2018-10-15T05:28:43.642Z,11.30
2018-10-15T05:29:16.218Z,11.30
2018-10-15T05:29:48.832Z,11.30
2018-10-15T05:30:21.514Z,11.30
2018-10-15T05:30:54.065Z,11.30
2018-10-15T05:31:26.631Z,11.30
2018-10-15T05:31:59.196Z,11.30
2018-10-15T05:32:31.809Z,11.30
2018-10-15T05:33:04.500Z,11.30
2018-10-15T05:33:37.118Z,11.30
2018-10-15T05:34:09.694Z,11.30
2018-10-15T05:34:42.247Z,11.30
2018-10-15T05:35:14.843Z,11.30
2018-10-15T05:35:47.730Z,11.30
2018-10-15T05:36:20.406Z,11.30
2018-10-15T05:36:52.978Z,11.30
2018-10-15T05:37:25.585Z,11.30
2018-10-15T05:37:58.194Z,11.30
2018-10-15T05:38:30.843Z,11.30
2018-10-15T05:39:04.860Z,11.30
2018-10-15T05:39:37.464Z,11.30
2018-10-15T05:40:10.106Z,11.30
2018-10-15T05:40:42.706Z,11.30
2018-10-15T05:41:15.292Z,11.30
2018-10-15T05:41:47.871Z,11.30
2018-10-15T05:42:20.606Z,11.30
2018-10-15T05:42:53.125Z,11.30
2018-10-15T05:43:25.849Z,11.30
2018-10-15T05:43:58.415Z,11.30
2018-10-15T05:44:31.076Z,11.30
2018-10-15T05:45:04.312Z,11.40
2018-10-15T05:45:36.899Z,11.30
2018-10-15T05:46:09.501Z,11.30
2018-10-15T05:46:42.120Z,11.30
2018-10-15T05:47:14.745Z,11.30
2018-10-15T05:47:47.305Z,11.30
2018-10-15T05:48:20.003Z,11.30
2018-10-15T05:48:52.547Z,11.30
2018-10-15T05:49:25.204Z,11.30
2018-10-15T05:49:57.799Z,11.30
2018-10-15T05:50:30.363Z,11.30
2018-10-15T05:51:03.007Z,11.30
2018-10-15T05:51:35.590Z,11.30
2018-10-15T05:52:08.250Z,11.30
2018-10-15T05:52:41.287Z,11.30
2018-10-15T05:53:13.912Z,11.30
2018-10-15T05:53:46.511Z,11.30
2018-10-15T05:54:19.184Z,11.30
2018-10-15T05:54:51.764Z,11.30
2018-10-15T05:55:24.347Z,11.30
2018-10-15T05:55:56.910Z,11.30
2018-10-15T05:56:29.514Z,11.30
2018-10-15T05:57:02.116Z,11.20
2018-10-15T05:57:34.716Z,11.30
2018-10-15T05:58:07.342Z,11.30
2018-10-15T05:58:40.135Z,11.30
2018-10-15T05:59:12.735Z,11.30
2018-10-15T05:59:45.326Z,11.30
2018-10-15T06:00:18.014Z,11.30
2018-10-15T06:00:50.523Z,11.20
2018-10-15T06:01:23.086Z,11.20
2018-10-15T06:01:55.711Z,11.30
2018-10-15T06:02:28.336Z,11.20
2018-10-15T06:03:00.915Z,11.20
2018-10-15T06:03:33.543Z,11.20
2018-10-15T06:04:06.990Z,11.20
2018-10-15T06:04:39.598Z,11.20
2018-10-15T06:05:12.203Z,11.20
2018-10-15T06:05:44.776Z,11.20
2018-10-15T06:06:17.457Z,11.20
2018-10-15T06:06:50.081Z,11.20
2018-10-15T06:07:22.684Z,11.20
2018-10-15T06:07:55.295Z,11.10
2018-10-15T06:08:27.854Z,11.10
2018-10-15T06:09:00.458Z,11.00
2018-10-15T06:09:33.057Z,11.00
2018-10-15T06:10:07.644Z,11.00
2018-10-15T06:10:40.254Z,11.00
2018-10-15T06:11:12.872Z,11.00
2018-10-15T06:11:45.514Z,10.90
2018-10-15T06:12:18.146Z,10.90
2018-10-15T06:12:51.887Z,11.00
2018-10-15T06:13:24.585Z,10.90
2018-10-15T06:13:57.085Z,10.90
2018-10-15T06:14:29.698Z,10.90
2018-10-15T06:15:02.315Z,10.90
2018-10-15T06:15:34.938Z,11.00
2018-10-15T06:16:07.783Z,10.90
2018-10-15T06:16:40.450Z,11.00
2018-10-15T06:17:13.116Z,11.00
2018-10-15T06:17:45.703Z,11.00
2018-10-15T06:18:18.380Z,11.00
2018-10-15T06:18:50.899Z,11.00
2018-10-15T06:19:23.514Z,11.00
2018-10-15T06:19:56.076Z,11.00
2018-10-15T06:20:28.651Z,11.00
2018-10-15T06:21:01.310Z,11.00
2018-10-15T06:21:33.927Z,11.00
2018-10-15T06:22:06.514Z,11.00
2018-10-15T06:22:39.175Z,11.00
2018-10-15T06:23:11.750Z,11.00
2018-10-15T06:23:44.318Z,11.00
2018-10-15T06:24:17.026Z,11.00
2018-10-15T06:24:49.521Z,11.00
2018-10-15T06:25:22.094Z,11.00
2018-10-15T06:25:54.685Z,11.00
2018-10-15T06:26:27.279Z,11.00
2018-10-15T06:26:59.889Z,11.00
2018-10-15T06:27:32.502Z,11.00
2018-10-15T06:28:05.322Z,11.00
2018-10-15T06:28:37.858Z,11.00
2018-10-15T06:29:10.465Z,11.00
2018-10-15T06:29:43.042Z,11.00
2018-10-15T06:30:16.640Z,11.00
2018-10-15T06:30:49.213Z,11.00
2018-10-15T06:31:22.120Z,11.00
2018-10-15T06:31:54.718Z,11.00
2018-10-15T06:32:27.320Z,11.00
2018-10-15T06:32:59.907Z,11.00
2018-10-15T06:33:32.531Z,11.00
2018-10-15T06:34:05.183Z,11.00
2018-10-15T06:34:37.751Z,11.00
2018-10-15T06:35:10.375Z,11.00
2018-10-15T06:35:42.963Z,11.00
2018-10-15T06:36:15.630Z,11.00
2018-10-15T06:36:48.213Z,11.00
2018-10-15T06:37:20.880Z,11.10
2018-10-15T06:37:53.427Z,11.00
2018-10-15T06:38:26.007Z,11.10
2018-10-15T06:38:58.663Z,11.10
2018-10-15T06:39:31.200Z,11.10
2018-10-15T06:40:04.343Z,11.10
2018-10-15T06:40:36.964Z,11.10
2018-10-15T06:41:09.615Z,11.10
2018-10-15T06:41:42.174Z,11.10
2018-10-15T06:42:14.802Z,11.20
2018-10-15T06:42:47.404Z,11.10
2018-10-15T06:43:20.014Z,11.10
2018-10-15T06:43:52.695Z,11.20
2018-10-15T06:44:25.308Z,11.20
2018-10-15T06:44:57.873Z,11.20
2018-10-15T06:45:30.479Z,11.20
2018-10-15T06:46:03.099Z,11.20
2018-10-15T06:46:35.712Z,11.20
2018-10-15T06:47:08.359Z,11.20
2018-10-15T06:47:41.022Z,11.20
2018-10-15T06:48:13.601Z,11.20
2018-10-15T06:48:46.200Z,11.20
2018-10-15T06:49:18.861Z,11.20
2018-10-15T06:49:51.672Z,11.20
2018-10-15T06:50:24.255Z,11.20
2018-10-15T06:50:56.859Z,11.20
2018-10-15T06:51:29.459Z,11.20
2018-10-15T06:52:02.118Z,11.30
2018-10-15T06:52:34.752Z,11.30
2018-10-15T06:53:07.380Z,11.30
2018-10-15T06:53:40.098Z,11.30
2018-10-15T06:54:12.773Z,11.30
2018-10-15T06:54:45.439Z,11.30
2018-10-15T06:55:18.146Z,11.30
2018-10-15T06:55:50.636Z,11.30
2018-10-15T06:56:23.244Z,11.30
2018-10-15T06:56:55.847Z,11.30
2018-10-15T06:57:28.419Z,11.30
2018-10-15T06:58:01.028Z,11.40
2018-10-15T06:58:33.594Z,11.40
2018-10-15T06:59:06.286Z,11.40
2018-10-15T06:59:38.829Z,11.40
2018-10-15T07:00:12.165Z,11.40
2018-10-15T07:00:44.728Z,11.40
2018-10-15T07:01:17.401Z,11.40
2018-10-15T07:01:50.681Z,11.40
2018-10-15T07:02:23.348Z,11.40
2018-10-15T07:02:55.831Z,11.40